Time;durP1;ratioP1;P1;durP2;ratioP2;P2;SDS_P1;SDS_P2;PMS_P1;PMS_P2;Temp;Humidity;BMP_temperature;BMP_pressure;BME280_temperature;BME280_humidity;BME280_pressure;Samples;Min_cycle;Max_cycle;Signal;HPM_P1;HPM_P2
2021/11/26 00:02:24;;;;;;;2.95;2.75;;;;;;;2.28;77.61;99320.75;6395445;22;20049;-74
2021/11/26 00:04:50;;;;;;;4.97;3.55;;;;;;;2.24;78.76;99314.84;6396739;22;20024;-73
2021/11/26 00:07:18;;;;;;;2.35;2.22;;;;;;;2.25;77.79;99328.56;6368246;22;20025;-71
2021/11/26 00:09:44;;;;;;;2.10;2.00;;;;;;;2.26;78.01;99330.25;6342943;22;20025;-71
2021/11/26 00:12:11;;;;;;;3.20;3.00;;;;;;;2.23;78.28;99330.31;6370029;22;20020;-72
2021/11/26 00:14:46;;;;;;;4.18;3.80;;;;;;;2.26;78.08;99305.34;6399452;22;20018;-71
2021/11/26 00:17:18;;;;;;;8.80;2.88;;;;;;;2.23;77.86;99307.16;6398435;22;20044;-71
2021/11/26 00:19:45;;;;;;;4.18;3.92;;;;;;;2.23;77.92;99310.56;6370784;22;20438;-71
2021/11/26 00:22:11;;;;;;;3.85;3.58;;;;;;;2.17;78.50;99308.19;6370230;22;20488;-71
2021/11/26 00:24:37;;;;;;;4.95;4.55;;;;;;;2.16;78.30;99292.81;6398204;22;20062;-72
2021/11/26 00:27:03;;;;;;;3.00;2.80;;;;;;;2.20;78.07;99308.09;6398409;22;20014;-71
2021/11/26 00:29:29;;;;;;;2.72;2.42;;;;;;;2.19;78.26;99298.72;6397777;22;20024;-73
2021/11/26 00:31:55;;;;;;;5.13;4.75;;;;;;;2.19;78.59;99308.16;6398258;22;20030;-71
2021/11/26 00:34:21;;;;;;;2.05;1.83;;;;;;;2.13;78.79;99301.44;6397334;22;20542;-72
2021/11/26 00:36:47;;;;;;;2.72;2.53;;;;;;;2.15;78.55;99301.41;6397754;22;20014;-70
2021/11/26 00:39:13;;;;;;;7.03;6.38;;;;;;;2.13;78.32;99292.91;6397163;22;20356;-72
2021/11/26 00:41:40;;;;;;;4.90;4.50;;;;;;;2.17;77.95;99299.63;6398029;22;20071;-72
2021/11/26 00:44:06;;;;;;;6.53;4.22;;;;;;;2.11;79.08;99300.66;6400452;22;20334;-72
2021/11/26 00:46:34;;;;;;;4.78;4.38;;;;;;;2.07;79.44;99299.91;6319215;22;20469;-70
2021/11/26 00:49:00;;;;;;;2.75;2.55;;;;;;;2.15;78.06;99306.56;6398931;22;20049;-73
2021/11/26 00:51:30;;;;;;;3.45;3.25;;;;;;;2.12;78.45;99292.06;6397261;22;20018;-72
2021/11/26 00:53:57;;;;;;;4.57;4.18;;;;;;;2.08;79.11;99301.59;6397328;22;20026;-72
2021/11/26 00:56:23;;;;;;;4.18;3.88;;;;;;;2.07;78.97;99299.06;6368864;22;20446;-70
2021/11/26 00:58:49;;;;;;;6.15;5.40;;;;;;;2.09;78.62;99290.38;6397312;22;20018;-72
2021/11/26 01:01:15;;;;;;;7.13;5.32;;;;;;;2.14;78.21;99292.84;6397105;22;20022;-72
2021/11/26 01:03:41;;;;;;;5.32;4.93;;;;;;;2.09;78.53;99280.09;6397325;22;20089;-72
2021/11/26 01:06:07;;;;;;;1.83;1.83;;;;;;;2.02;79.94;99286.34;6369166;22;20035;-74
2021/11/26 01:08:33;;;;;;;4.53;4.13;;;;;;;2.07;78.68;99281.03;6369014;22;20049;-72
2021/11/26 01:10:59;;;;;;;8.50;4.30;;;;;;;2.04;78.95;99279.41;6369310;22;20020;-72
2021/11/26 01:13:26;;;;;;;5.47;5.03;;;;;;;2.02;79.39;99285.50;6399460;22;20403;-72
2021/11/26 01:15:52;;;;;;;4.07;3.72;;;;;;;2.01;78.91;99282.06;6372681;22;20101;-71
2021/11/26 01:18:19;;;;;;;1.75;1.73;;;;;;;2.02;79.12;99276.03;6397076;22;20046;-74
2021/11/26 01:20:45;;;;;;;3.70;3.30;;;;;;;1.98;79.19;99253.84;6397766;22;20021;-72
2021/11/26 01:23:11;;;;;;;6.35;4.40;;;;;;;2.08;78.10;99270.72;6397100;22;20063;-72
2021/11/26 01:25:37;;;;;;;4.43;4.13;;;;;;;2.04;78.43;99271.69;6397459;22;20018;-71
2021/11/26 01:28:03;;;;;;;4.30;4.00;;;;;;;2.02;78.97;99270.03;6397362;22;20529;-72
2021/11/26 01:30:38;;;;;;;2.63;2.47;;;;;;;2.03;78.76;99272.56;6369340;22;20109;-72
2021/11/26 01:33:07;;;;;;;3.90;3.53;;;;;;;1.99;78.71;99265.84;6397273;22;20014;-72
2021/11/26 01:35:33;;;;;;;3.95;3.60;;;;;;;1.96;79.60;99265.91;6369052;22;20049;-72
2021/11/26 01:37:59;;;;;;;3.20;3.00;;;;;;;1.98;78.86;99261.56;6397088;22;20014;-73
2021/11/26 01:40:26;;;;;;;6.22;5.63;;;;;;;1.94;79.16;99277.97;6368875;22;20017;-73
2021/11/26 01:42:53;;;;;;;2.25;2.08;;;;;;;1.98;78.68;99268.44;6369348;22;20013;-73
2021/11/26 01:45:19;;;;;;;4.88;3.88;;;;;;;1.94;79.24;99261.69;6396651;22;20018;-71
2021/11/26 01:47:45;;;;;;;3.42;3.20;;;;;;;1.91;78.76;99249.78;6397051;22;20014;-71
2021/11/26 01:50:11;;;;;;;1.92;1.83;;;;;;;1.95;79.36;99253.94;6368817;22;20024;-73
2021/11/26 01:52:37;;;;;;;8.40;3.88;;;;;;;1.97;78.55;99234.13;6397087;22;20018;-73
2021/11/26 01:55:04;;;;;;;6.90;6.05;;;;;;;2.00;78.31;99267.50;6342548;22;20024;-74
2021/11/26 01:57:30;;;;;;;2.47;2.38;;;;;;;1.99;78.46;99249.53;6396610;22;20585;-74
2021/11/26 01:59:56;;;;;;;3.53;2.58;;;;;;;2.00;78.04;99246.91;6397135;22;20022;-72
2021/11/26 02:02:22;;;;;;;4.53;4.22;;;;;;;1.98;78.54;99253.84;6341891;22;20053;-73
2021/11/26 02:04:48;;;;;;;4.93;4.50;;;;;;;1.96;79.07;99255.59;6368695;22;20067;-74
2021/11/26 02:07:14;;;;;;;5.35;4.85;;;;;;;2.03;77.96;99246.81;6396157;22;20013;-73
2021/11/26 02:09:40;;;;;;;3.78;3.45;;;;;;;1.96;78.35;99258.19;6396842;22;20014;-73
2021/11/26 02:12:07;;;;;;;5.88;4.47;;;;;;;2.00;77.93;99258.94;6396531;22;20094;-73
2021/11/26 02:14:33;;;;;;;5.82;5.22;;;;;;;1.92;78.57;99246.31;6396361;22;20473;-73
2021/11/26 02:16:59;;;;;;;3.55;2.08;;;;;;;1.98;77.89;99251.28;6396706;22;20013;-72
2021/11/26 02:19:25;;;;;;;6.38;5.07;;;;;;;2.00;77.51;99249.50;6396335;22;20017;-73
2021/11/26 02:21:52;;;;;;;4.30;3.72;;;;;;;1.95;78.03;99233.34;6396621;22;20018;-73
2021/11/26 02:24:18;;;;;;;5.70;4.63;;;;;;;1.92;77.91;99227.47;6368284;22;20032;-73
2021/11/26 02:26:45;;;;;;;3.53;3.28;;;;;;;1.89;78.16;99230.97;6342634;22;20041;-73
2021/11/26 02:29:11;;;;;;;3.05;2.78;;;;;;;1.97;77.84;99243.59;6368215;22;20547;-74
2021/11/26 02:31:40;;;;;;;4.72;4.40;;;;;;;1.91;77.51;99228.34;6368613;22;20018;-73
2021/11/26 02:34:06;;;;;;;5.22;4.80;;;;;;;1.91;77.97;99220.63;6395794;22;20105;-73
2021/11/26 02:36:32;;;;;;;6.43;4.47;;;;;;;1.96;77.61;99213.63;6368072;22;20453;-72
2021/11/26 02:38:58;;;;;;;5.72;5.22;;;;;;;1.94;77.34;99211.06;6368429;22;20369;-72
2021/11/26 02:41:24;;;;;;;7.97;7.18;;;;;;;1.93;77.68;99213.72;6396141;22;20024;-72
2021/11/26 02:43:50;;;;;;;2.42;2.17;;;;;;;1.95;77.76;99215.34;6368018;22;20022;-73
2021/11/26 02:46:18;;;;;;;6.05;3.10;;;;;;;1.95;77.01;99207.63;6396042;22;20039;-73
2021/11/26 02:48:47;;;;;;;7.00;6.32;;;;;;;1.91;77.36;99200.88;6396275;22;20059;-71
2021/11/26 02:51:13;;;;;;;5.10;4.72;;;;;;;1.91;77.23;99200.88;6395977;22;20022;-73
2021/11/26 02:53:39;;;;;;;7.80;6.30;;;;;;;1.98;76.58;99186.94;6396161;22;20022;-73
2021/11/26 02:56:05;;;;;;;2.50;2.40;;;;;;;1.96;77.09;99204.13;6396714;22;20131;-73
2021/11/26 02:58:32;;;;;;;7.53;5.53;;;;;;;1.92;77.06;99169.13;6395727;22;20036;-73
2021/11/26 03:00:58;;;;;;;4.85;4.40;;;;;;;1.98;76.64;99194.66;6342336;22;20464;-72
2021/11/26 03:03:24;;;;;;;2.97;2.83;;;;;;;1.93;76.69;99182.84;6395854;22;20347;-72
2021/11/26 03:06:01;;;;;;;8.88;6.50;;;;;;;1.94;76.77;99189.63;6396187;22;20017;-74
2021/11/26 03:08:28;;;;;;;5.15;4.80;;;;;;;1.83;77.64;99176.28;6395885;22;20051;-73
2021/11/26 03:10:55;;;;;;;3.88;3.58;;;;;;;1.92;76.67;99187.13;6396201;22;20041;-72
2021/11/26 03:13:21;;;;;;;2.85;2.70;;;;;;;1.98;76.39;99194.66;6395482;22;20093;-73
2021/11/26 03:15:47;;;;;;;7.43;5.75;;;;;;;1.92;76.71;99184.56;6396249;22;20461;-73
2021/11/26 03:18:17;;;;;;;5.57;3.00;;;;;;;1.98;75.73;99171.50;6395966;22;20481;-73
2021/11/26 03:20:42;;;;;;;3.85;3.55;;;;;;;1.92;76.67;99176.00;6368814;22;20026;-73
2021/11/26 03:23:09;;;;;;;5.78;5.20;;;;;;;1.91;76.60;99170.00;6395943;22;20096;-72
2021/11/26 03:25:35;;;;;;;6.10;5.68;;;;;;;1.93;75.97;99157.09;6395603;22;20024;-71
2021/11/26 03:28:01;;;;;;;3.92;3.63;;;;;;;1.90;75.94;99160.59;6342098;22;20059;-72
2021/11/26 03:30:27;;;;;;;3.83;3.63;;;;;;;1.91;76.37;99151.97;6395709;22;20054;-72
2021/11/26 03:32:55;;;;;;;6.97;6.30;;;;;;;1.90;75.21;99132.28;6367470;22;20022;-71
2021/11/26 03:35:22;;;;;;;4.78;4.47;;;;;;;1.94;75.29;99127.88;6395345;22;20026;-73
2021/11/26 03:37:48;;;;;;;4.80;4.40;;;;;;;1.95;74.68;99116.69;6367623;22;20022;-73
2021/11/26 03:40:14;;;;;;;7.10;6.45;;;;;;;1.95;74.83;99139.88;6395916;22;20490;-73
2021/11/26 03:42:41;;;;;;;5.78;2.88;;;;;;;1.88;75.46;99126.34;6367337;22;20079;-71
2021/11/26 03:45:07;;;;;;;2.97;2.88;;;;;;;1.87;75.32;99128.97;6395688;22;20021;-72
2021/11/26 03:47:33;;;;;;;3.95;3.65;;;;;;;1.89;75.87;99140.91;6367541;22;20037;-72
2021/11/26 03:49:59;;;;;;;5.80;4.90;;;;;;;1.94;75.16;99139.00;6367885;22;20502;-73
2021/11/26 03:52:25;;;;;;;5.43;4.32;;;;;;;1.84;75.59;99106.75;6367662;22;20087;-72
2021/11/26 03:54:51;;;;;;;9.00;6.45;;;;;;;1.89;75.68;99122.91;6395829;22;20395;-72
2021/11/26 03:57:17;;;;;;;6.25;5.68;;;;;;;1.95;74.93;99132.16;6395597;22;20014;-71
2021/11/26 03:59:43;;;;;;;5.32;4.82;;;;;;;1.86;74.75;99123.00;6394815;22;20022;-73
2021/11/26 04:02:09;;;;;;;6.13;5.50;;;;;;;1.88;75.58;99136.66;6395555;22;20091;-72
2021/11/26 04:04:36;;;;;;;5.80;4.55;;;;;;;1.77;76.00;99125.00;6367153;22;20181;-72
2021/11/26 04:07:02;;;;;;;2.20;2.13;;;;;;;1.87;75.55;99145.25;6341410;22;20115;-72
2021/11/26 04:09:28;;;;;;;6.65;5.95;;;;;;;1.82;75.53;99133.41;6394514;22;20040;-71
2021/11/26 04:11:54;;;;;;;4.03;3.78;;;;;;;1.86;75.14;99130.72;6396197;22;20021;-73
2021/11/26 04:14:20;;;;;;;3.08;2.83;;;;;;;1.85;75.66;99129.03;6395219;22;20380;-72
2021/11/26 04:16:48;;;;;;;8.40;7.63;;;;;;;1.82;75.07;99102.53;6367675;22;20021;-73
2021/11/26 04:19:14;;;;;;;10.07;9.07;;;;;;;1.86;74.96;99128.16;6367630;22;20032;-72
2021/11/26 04:21:39;;;;;;;6.43;5.82;;;;;;;1.81;74.45;99106.84;6367937;22;20353;-73
2021/11/26 04:24:06;;;;;;;5.35;4.95;;;;;;;1.79;74.71;99107.78;6367469;22;20291;-71
2021/11/26 04:26:32;;;;;;;3.58;3.38;;;;;;;1.83;74.51;99115.34;6366865;22;20103;-73
2021/11/26 04:28:59;;;;;;;11.77;9.77;;;;;;;1.75;74.97;99112.19;6395838;22;20021;-72
2021/11/26 04:31:26;;;;;;;2.75;2.65;;;;;;;1.81;74.80;99095.72;6367820;22;20014;-72
2021/11/26 04:33:53;;;;;;;7.22;6.55;;;;;;;1.79;74.92;99120.66;6395512;22;20137;-72
2021/11/26 04:36:19;;;;;;;10.05;6.95;;;;;;;1.83;73.44;99111.97;6367540;22;20097;-73
2021/11/26 04:38:45;;;;;;;7.30;6.63;;;;;;;1.79;74.30;99121.50;6395789;22;20041;-73
2021/11/26 04:41:11;;;;;;;3.75;3.55;;;;;;;1.81;73.33;99142.00;6396258;22;20070;-74
2021/11/26 04:43:38;;;;;;;4.03;3.78;;;;;;;1.83;73.24;99110.19;6395718;22;20017;-73
2021/11/26 04:46:04;;;;;;;5.65;4.93;;;;;;;1.79;73.12;99121.50;6395657;22;20429;-73
2021/11/26 04:48:30;;;;;;;4.28;3.88;;;;;;;1.83;72.78;99125.63;6395239;22;20498;-73
2021/11/26 04:50:56;;;;;;;3.90;3.60;;;;;;;1.80;73.20;99140.34;6395849;22;20075;-73
2021/11/26 04:53:22;;;;;;;3.95;3.60;;;;;;;1.85;72.49;99129.03;6395144;22;20086;-74
2021/11/26 04:55:48;;;;;;;5.20;4.68;;;;;;;1.79;72.43;99126.66;6395971;22;20020;-73
2021/11/26 04:58:15;;;;;;;7.85;7.15;;;;;;;1.80;72.83;99133.44;6370124;22;20040;-72
2021/11/26 05:00:41;;;;;;;8.27;7.45;;;;;;;1.81;72.49;99132.56;6398503;22;20364;-70
2021/11/26 05:03:07;;;;;;;6.60;6.05;;;;;;;1.80;72.69;99135.22;6370589;22;20021;-73
2021/11/26 05:05:33;;;;;;;7.18;6.00;;;;;;;1.82;72.37;99129.13;6369842;22;20089;-75
2021/11/26 05:07:59;;;;;;;9.57;5.05;;;;;;;1.83;72.36;99142.84;6398232;22;20039;-72
2021/11/26 05:10:26;;;;;;;1.77;1.77;;;;;;;1.85;72.25;99129.03;6400935;22;20410;-72
2021/11/26 05:12:56;;;;;;;7.63;4.63;;;;;;;1.80;73.11;99145.50;6400598;22;20020;-73
2021/11/26 05:15:26;;;;;;;2.63;2.53;;;;;;;1.85;72.55;99141.03;6398006;22;20517;-72
2021/11/26 05:18:02;;;;;;;4.88;4.47;;;;;;;1.87;72.33;99145.25;6398360;22;20044;-72
2021/11/26 05:20:29;;;;;;;5.43;4.93;;;;;;;1.86;72.31;99138.44;6369983;22;20014;-73
2021/11/26 05:22:56;;;;;;;1.60;1.58;;;;;;;1.87;72.12;99121.25;6370397;22;20056;-72
2021/11/26 05:25:22;;;;;;;6.55;6.05;;;;;;;1.86;72.66;99125.56;6397769;22;20102;-73
2021/11/26 05:27:48;;;;;;;6.15;5.53;;;;;;;1.85;72.43;99123.88;6370223;22;20449;-72
2021/11/26 05:30:15;;;;;;;4.18;3.65;;;;;;;1.85;72.73;99129.03;6370189;22;20014;-72
2021/11/26 05:32:41;;;;;;;9.10;6.95;;;;;;;1.88;71.98;99113.47;6397351;22;20524;-73
2021/11/26 05:35:12;;;;;;;9.20;5.32;;;;;;;1.86;73.10;99120.44;6369325;22;20029;-70
2021/11/26 05:37:38;;;;;;;8.20;5.97;;;;;;;1.88;72.54;99117.78;6397868;22;20037;-72
2021/11/26 05:40:05;;;;;;;5.07;3.33;;;;;;;1.85;73.11;99105.03;6398545;22;20356;-72
2021/11/26 05:42:31;;;;;;;4.25;3.92;;;;;;;1.88;72.65;99113.47;6399988;22;20675;-73
2021/11/26 05:44:58;;;;;;;4.22;3.65;;;;;;;1.92;72.18;99073.06;6400498;22;20021;-73
2021/11/26 05:47:24;;;;;;;4.43;4.05;;;;;;;1.95;72.17;99096.97;6345703;22;20018;-74
2021/11/26 05:49:50;;;;;;;6.60;6.05;;;;;;;1.92;72.27;99089.34;6397665;22;20097;-73
2021/11/26 05:52:16;;;;;;;5.85;5.28;;;;;;;1.99;72.12;99088.25;6397755;22;20055;-73
2021/11/26 05:54:42;;;;;;;5.00;4.55;;;;;;;1.99;71.63;99084.84;6396596;22;20527;-72
2021/11/26 05:57:11;;;;;;;4.15;3.85;;;;;;;1.97;72.55;99082.31;6398979;22;20021;-72
2021/11/26 05:59:38;;;;;;;4.85;4.45;;;;;;;1.91;73.13;99085.06;6397834;22;20083;-73
2021/11/26 06:02:03;;;;;;;7.72;7.03;;;;;;;1.91;72.37;99077.34;6394931;22;20445;-73
2021/11/26 06:04:31;;;;;;;4.53;4.15;;;;;;;1.96;72.66;99080.59;6364878;22;20460;-74
2021/11/26 06:06:58;;;;;;;4.38;4.05;;;;;;;1.96;72.87;99090.91;6364358;22;20060;-72
2021/11/26 06:09:24;;;;;;;10.32;7.95;;;;;;;2.00;72.54;99033.31;6366809;22;20100;-73
2021/11/26 06:11:50;;;;;;;15.43;4.20;;;;;;;2.08;71.66;99075.09;6368135;22;20374;-72
2021/11/26 06:14:16;;;;;;;6.07;5.45;;;;;;;2.05;72.07;99077.75;6394239;22;20048;-73
2021/11/26 06:16:42;;;;;;;6.70;6.03;;;;;;;2.08;72.06;99072.50;6395969;22;20018;-75
2021/11/26 06:19:08;;;;;;;5.80;5.18;;;;;;;2.02;72.49;99077.88;6396018;22;20111;-72
2021/11/26 06:21:34;;;;;;;4.35;4.05;;;;;;;1.99;73.23;99077.13;6341046;22;20431;-73
2021/11/26 06:24:00;;;;;;;3.35;3.03;;;;;;;1.96;72.67;99060.03;6367151;22;20021;-72
2021/11/26 06:26:27;;;;;;;8.52;3.00;;;;;;;2.02;73.14;99074.44;6395200;22;20089;-72
2021/11/26 06:28:53;;;;;;;3.25;3.03;;;;;;;2.06;72.69;99070.88;6395906;22;20063;-72
2021/11/26 06:31:19;;;;;;;6.75;5.72;;;;;;;2.06;72.31;99056.25;6395927;22;20526;-72
2021/11/26 06:33:45;;;;;;;5.25;4.55;;;;;;;2.07;73.15;99051.94;6367687;22;20453;-73
2021/11/26 06:36:11;;;;;;;3.65;3.33;;;;;;;2.08;72.79;99039.03;6368056;22;20649;-73
2021/11/26 06:38:37;;;;;;;7.78;6.25;;;;;;;2.13;72.61;99035.47;6395117;22;20022;-73
2021/11/26 06:44:45;;;;;;;4.88;3.63;;;;;;;2.16;73.00;99069.66;6382655;22;20097;-73
2021/11/26 06:47:12;;;;;;;5.25;4.85;;;;;;;2.13;73.32;99077.47;6367991;22;20025;-73
2021/11/26 06:49:38;;;;;;;6.60;4.95;;;;;;;2.16;72.75;99074.00;6395160;22;20024;-72
2021/11/26 06:52:05;;;;;;;6.03;5.47;;;;;;;2.17;72.91;99085.94;6395930;22;20093;-76
2021/11/26 06:54:31;;;;;;;7.22;3.78;;;;;;;2.11;72.77;99081.84;6366390;22;20353;-75
2021/11/26 06:56:57;;;;;;;4.28;4.07;;;;;;;2.20;72.84;99081.53;6367325;22;20039;-77
2021/11/26 06:59:23;;;;;;;9.13;7.38;;;;;;;2.20;72.92;99078.97;6367252;22;20018;-73
2021/11/26 07:01:49;;;;;;;5.28;4.85;;;;;;;2.26;72.70;99080.50;6395224;22;20014;-75
2021/11/26 07:04:16;;;;;;;4.80;4.40;;;;;;;2.19;73.52;99077.31;6340740;22;20070;-74
2021/11/26 07:06:42;;;;;;;6.95;4.88;;;;;;;2.24;73.63;99074.56;6366895;22;20645;-75
2021/11/26 07:09:08;;;;;;;4.40;3.33;;;;;;;2.33;72.37;99069.09;6395718;22;20062;-77
2021/11/26 07:11:34;;;;;;;5.53;5.10;;;;;;;2.36;72.39;99071.56;6395190;22;20022;-74
2021/11/26 07:14:01;;;;;;;7.90;7.18;;;;;;;2.33;72.39;99079.38;6395236;22;20018;-75
2021/11/26 07:16:27;;;;;;;11.50;6.00;;;;;;;2.37;72.38;99078.41;6367376;22;20014;-74
2021/11/26 07:18:53;;;;;;;9.73;4.63;;;;;;;2.35;72.43;99077.63;6395146;22;20070;-75
2021/11/26 07:21:19;;;;;;;1.45;1.45;;;;;;;2.37;72.83;99084.41;6367321;22;20014;-75
2021/11/26 07:23:45;;;;;;;3.35;3.13;;;;;;;2.39;72.48;99079.22;6366379;22;20526;-74
2021/11/26 07:26:12;;;;;;;3.55;3.25;;;;;;;2.37;72.97;99065.53;6366998;22;20017;-73
2021/11/26 07:28:38;;;;;;;6.43;5.88;;;;;;;2.40;73.24;99037.09;6367217;22;20566;-74
2021/11/26 07:31:05;;;;;;;9.50;6.43;;;;;;;2.40;72.58;99055.97;6395886;22;20024;-74
2021/11/26 07:33:31;;;;;;;6.38;5.10;;;;;;;2.42;72.41;99073.94;6394675;22;20060;-74
2021/11/26 07:35:57;;;;;;;3.70;3.47;;;;;;;2.42;73.43;99071.38;6360581;22;20018;-73
2021/11/26 07:38:23;;;;;;;4.70;4.30;;;;;;;2.38;73.59;99072.38;6363124;22;20041;-74
2021/11/26 07:40:52;;;;;;;4.57;4.07;;;;;;;2.43;72.69;99057.56;6362905;22;20018;-73
2021/11/26 07:43:19;;;;;;;6.00;5.55;;;;;;;2.40;73.24;99065.41;6363300;22;20018;-75
2021/11/26 07:45:46;;;;;;;6.20;5.05;;;;;;;2.41;73.24;99064.53;6363067;22;20014;-74
2021/11/26 07:48:12;;;;;;;3.78;2.53;;;;;;;2.44;73.04;99067.00;6363263;22;20484;-73
2021/11/26 07:50:38;;;;;;;7.18;6.57;;;;;;;2.42;73.06;99037.88;6363136;22;20019;-75
2021/11/26 07:53:04;;;;;;;6.80;6.05;;;;;;;2.46;73.35;99044.59;6360462;22;20083;-75
2021/11/26 07:55:30;;;;;;;4.47;4.13;;;;;;;2.47;73.19;99049.69;6361347;22;20078;-73
2021/11/26 07:57:57;;;;;;;7.22;3.30;;;;;;;2.51;73.48;99047.88;6363480;22;20029;-76
2021/11/26 08:00:23;;;;;;;8.75;5.72;;;;;;;2.53;73.10;99040.91;6361831;22;20073;-73
2021/11/26 08:02:49;;;;;;;5.60;5.10;;;;;;;2.51;72.96;99027.25;6363485;22;20021;-75
2021/11/26 08:05:15;;;;;;;11.45;7.00;;;;;;;2.55;73.10;99021.91;6361407;22;20330;-73
2021/11/26 08:07:41;;;;;;;5.60;5.00;;;;;;;2.59;72.77;99031.22;6335701;22;20109;-73
2021/11/26 08:10:10;;;;;;;2.40;2.30;;;;;;;2.64;72.20;99020.78;6361822;22;20010;-73
2021/11/26 08:13:14;;;;;;;4.18;3.83;;;;;;;2.66;72.14;99018.97;6363016;22;20022;-77
2021/11/26 08:15:47;;;;;;;9.27;6.38;;;;;;;2.73;72.43;99006.69;6358744;22;20079;-76
2021/11/26 08:18:13;;;;;;;7.70;6.95;;;;;;;2.75;72.16;99016.03;6335586;22;20014;-74
2021/11/26 08:20:39;;;;;;;6.93;5.85;;;;;;;2.73;71.70;98997.25;6335579;22;20063;-72
2021/11/26 08:23:05;;;;;;;5.97;5.47;;;;;;;2.75;72.79;98992.84;6335756;22;20045;-72
2021/11/26 08:25:32;;;;;;;5.88;5.38;;;;;;;2.80;71.62;98987.53;6334811;22;20057;-71
2021/11/26 08:27:58;;;;;;;6.03;5.30;;;;;;;2.82;72.03;98996.88;6361800;22;20113;-70
2021/11/26 08:30:24;;;;;;;7.18;6.47;;;;;;;2.80;72.49;98997.84;6362883;22;20366;-71
2021/11/26 08:32:52;;;;;;;11.63;5.00;;;;;;;2.78;72.13;98979.03;6364749;22;20461;-69
2021/11/26 08:35:19;;;;;;;8.32;7.03;;;;;;;2.82;71.92;98991.72;6382684;22;20026;-68
2021/11/26 08:37:46;;;;;;;4.57;4.18;;;;;;;2.81;71.78;98990.06;6396926;22;20013;-69
2021/11/26 08:40:12;;;;;;;5.05;4.68;;;;;;;2.76;71.29;98973.94;6368999;22;20515;-69
2021/11/26 08:42:38;;;;;;;4.93;4.53;;;;;;;2.79;72.18;98998.75;6396381;22;20018;-69
2021/11/26 08:45:05;;;;;;;5.82;5.28;;;;;;;2.79;72.00;98981.53;6396733;22;20014;-69
2021/11/26 08:47:31;;;;;;;6.22;5.60;;;;;;;2.80;71.92;98975.50;6396905;22;20100;-69
2021/11/26 08:49:57;;;;;;;3.47;3.25;;;;;;;2.80;71.55;98980.66;6396712;22;20014;-69
2021/11/26 08:52:24;;;;;;;7.15;6.20;;;;;;;2.81;72.12;98979.78;6368549;22;20024;-70
2021/11/26 08:54:50;;;;;;;3.63;3.42;;;;;;;2.82;71.60;98976.28;6368505;22;20570;-69
2021/11/26 08:57:18;;;;;;;5.75;5.20;;;;;;;2.78;71.96;98961.00;6368487;22;20128;-71
2021/11/26 08:59:44;;;;;;;7.28;4.32;;;;;;;2.82;72.45;98981.44;6396309;22;20014;-69
2021/11/26 09:02:10;;;;;;;6.47;5.68;;;;;;;2.80;71.62;98957.47;6396387;22;20018;-71
2021/11/26 09:04:36;;;;;;;9.52;8.10;;;;;;;2.84;71.79;98977.06;6367738;22;20104;-70
2021/11/26 09:07:02;;;;;;;4.80;4.03;;;;;;;2.85;72.38;98963.28;6396639;22;20109;-69
2021/11/26 09:09:28;;;;;;;7.53;6.88;;;;;;;2.82;72.40;98960.81;6395709;22;20046;-70
2021/11/26 09:11:54;;;;;;;6.90;4.95;;;;;;;2.83;72.52;98957.34;6395323;22;20013;-70
2021/11/26 09:14:20;;;;;;;10.05;9.05;;;;;;;2.84;72.35;98971.91;6396166;22;20059;-72
2021/11/26 09:16:46;;;;;;;10.48;8.65;;;;;;;2.81;71.91;98941.13;6396046;22;20102;-71
2021/11/26 09:19:12;;;;;;;6.28;5.53;;;;;;;2.86;71.99;98977.84;6368378;22;20017;-70
2021/11/26 09:21:38;;;;;;;6.07;5.47;;;;;;;2.83;72.21;98959.06;6396142;22;20018;-70
2021/11/26 09:24:04;;;;;;;4.15;3.75;;;;;;;2.83;72.34;98972.81;6370497;22;20423;-71
2021/11/26 09:26:31;;;;;;;5.18;4.72;;;;;;;2.84;72.73;98941.00;6401458;22;20383;-70
2021/11/26 09:28:57;;;;;;;7.63;6.68;;;;;;;2.83;72.73;98961.66;6399444;22;20101;-71
2021/11/26 09:31:23;;;;;;;6.10;5.35;;;;;;;2.85;72.06;98965.00;6369251;22;20010;-69
2021/11/26 09:33:52;;;;;;;6.90;6.05;;;;;;;2.81;72.81;98954.00;6396607;22;20021;-71
2021/11/26 09:36:18;;;;;;;6.20;5.25;;;;;;;2.82;73.05;98986.59;6369029;22;20139;-74
2021/11/26 09:38:44;;;;;;;5.57;5.07;;;;;;;2.78;73.55;98976.47;6396137;22;20037;-69
2021/11/26 09:41:13;;;;;;;7.70;7.00;;;;;;;2.76;73.08;98966.19;6367252;22;20025;-70
2021/11/26 09:43:40;;;;;;;2.97;2.72;;;;;;;2.78;73.36;98990.16;6393124;22;20018;-70
2021/11/26 09:46:07;;;;;;;3.72;3.40;;;;;;;2.79;73.70;98976.38;6393229;22;20022;-70
2021/11/26 09:48:34;;;;;;;3.20;2.92;;;;;;;2.77;73.88;98977.34;6392886;22;20014;-70
2021/11/26 09:51:01;;;;;;;4.53;4.15;;;;;;;2.70;74.25;98986.19;6394895;22;20047;-71
2021/11/26 09:53:27;;;;;;;2.50;2.38;;;;;;;2.71;74.00;98969.84;6395029;22;20329;-69
2021/11/26 09:56:07;;;;;;;5.88;5.18;;;;;;;2.67;74.57;98976.84;6366856;22;20032;-70
2021/11/26 09:58:36;;;;;;;3.95;3.67;;;;;;;2.65;75.46;98978.63;6394998;22;20097;-69
2021/11/26 10:01:05;;;;;;;2.17;2.08;;;;;;;2.68;74.83;98988.84;6367534;22;20014;-71
2021/11/26 10:03:45;;;;;;;2.70;2.53;;;;;;;2.65;74.90;98978.63;6365585;22;20014;-71
2021/11/26 10:06:20;;;;;;;3.90;3.60;;;;;;;2.55;75.23;98961.88;6364958;22;20115;-72
2021/11/26 10:09:00;;;;;;;4.63;4.25;;;;;;;2.61;75.50;98971.94;6392119;22;20402;-71
2021/11/26 10:11:27;;;;;;;6.32;5.07;;;;;;;2.56;75.79;98963.53;6365174;22;20021;-72
2021/11/26 10:13:54;;;;;;;5.05;4.15;;;;;;;2.60;75.76;98985.69;6287318;22;20014;-69
2021/11/26 10:16:21;;;;;;;3.33;3.03;;;;;;;2.61;75.42;98966.78;6393536;22;20101;-70
2021/11/26 10:18:49;;;;;;;3.75;3.55;;;;;;;2.61;75.86;98969.38;6367145;22;20548;-70
2021/11/26 10:21:15;;;;;;;2.67;2.58;;;;;;;2.54;76.10;98962.75;6395981;22;20017;-69
2021/11/26 10:23:49;;;;;;;7.18;6.25;;;;;;;2.57;75.80;98967.78;6395364;22;20096;-69
2021/11/26 10:26:18;;;;;;;13.98;5.22;;;;;;;2.58;76.08;98977.22;6395641;22;20014;-70
2021/11/26 10:28:53;;;;;;;10.07;5.35;;;;;;;2.55;76.91;98985.03;6395155;22;20013;-70
2021/11/26 10:31:39;;;;;;;3.70;3.00;;;;;;;2.52;76.36;98973.09;6367854;22;20356;-72
2021/11/26 10:34:07;;;;;;;3.78;3.55;;;;;;;2.55;76.65;98982.47;6396220;22;20070;-71
2021/11/26 10:36:44;;;;;;;3.97;2.92;;;;;;;2.55;76.28;98969.59;6368351;22;20018;-72
2021/11/26 10:39:11;;;;;;;5.93;5.32;;;;;;;2.52;77.18;98993.69;6396657;22;20067;-70
2021/11/26 10:41:38;;;;;;;6.68;5.00;;;;;;;2.54;76.67;98991.94;6396575;22;20033;-72
2021/11/26 10:44:09;;;;;;;3.38;3.17;;;;;;;2.55;76.91;98985.03;6396554;22;20097;-70
2021/11/26 11:00:11;;;;;;;3.97;3.67;;;;;;;2.59;76.67;98982.28;6395506;22;20013;-72
2021/11/26 11:02:40;;;;;;;6.25;5.63;;;;;;;2.58;76.70;98980.63;6396424;22;20068;-72
2021/11/26 11:05:10;;;;;;;5.07;4.55;;;;;;;2.62;75.82;98969.28;6316349;22;20178;-70
2021/11/26 11:07:40;;;;;;;3.80;3.58;;;;;;;2.64;76.11;98984.69;6396029;22;20096;-71
2021/11/26 11:10:07;;;;;;;4.82;4.40;;;;;;;2.61;75.98;98977.94;6341410;22;20536;-71
2021/11/26 11:12:35;;;;;;;3.35;3.15;;;;;;;2.63;76.11;98975.28;6342069;22;20114;-71
2021/11/26 11:15:04;;;;;;;6.85;5.65;;;;;;;2.63;76.11;98988.16;6366289;22;20407;-72
2021/11/26 11:17:30;;;;;;;6.22;4.15;;;;;;;2.66;76.26;98990.63;6367642;22;20017;-72
2021/11/26 11:20:00;;;;;;;3.75;3.45;;;;;;;2.68;75.98;98994.00;6394512;22;20024;-72
2021/11/26 11:22:26;;;;;;;5.72;3.70;;;;;;;2.71;75.89;98986.16;6396186;22;20525;-72
2021/11/26 11:24:52;;;;;;;6.25;5.60;;;;;;;2.72;75.23;98990.41;6368154;22;20041;-72
2021/11/26 11:27:18;;;;;;;5.88;5.38;;;;;;;2.72;75.50;98984.41;6395394;22;20017;-72
2021/11/26 11:29:45;;;;;;;9.27;4.32;;;;;;;2.75;75.32;98990.28;6342410;22;20017;-72
2021/11/26 11:32:11;;;;;;;8.88;6.65;;;;;;;2.74;75.44;98975.75;6397602;22;20112;-71
2021/11/26 11:34:37;;;;;;;3.78;3.47;;;;;;;2.72;75.53;98981.81;6368224;22;20045;-71
2021/11/26 11:37:07;;;;;;;3.13;2.92;;;;;;;2.75;75.26;98994.63;6395155;22;20022;-71
2021/11/26 11:39:53;;;;;;;6.35;5.72;;;;;;;2.78;74.89;99000.47;6368812;22;20418;-72
2021/11/26 11:42:39;;;;;;;6.82;5.10;;;;;;;2.75;75.11;98994.63;6341969;22;20018;-72
2021/11/26 11:45:10;;;;;;;5.10;4.60;;;;;;;2.75;74.60;98987.69;6342033;22;20038;-71
2021/11/26 11:47:58;;;;;;;4.82;4.38;;;;;;;2.74;75.59;98992.94;6369550;22;20103;-72
2021/11/26 11:50:27;;;;;;;4.28;3.97;;;;;;;2.79;74.33;99007.31;6367680;22;20025;-71
2021/11/26 11:52:58;;;;;;;6.15;5.57;;;;;;;2.79;74.85;99011.63;6395773;22;20018;-70
2021/11/26 11:55:31;;;;;;;2.45;2.25;;;;;;;2.79;74.47;99011.63;6394271;22;20018;-72
2021/11/26 11:58:19;;;;;;;6.30;5.70;;;;;;;2.73;75.13;99002.38;6395623;22;20532;-73
2021/11/26 12:00:52;;;;;;;5.30;3.65;;;;;;;2.84;74.75;99012.31;6371363;22;20021;-72